sensor_id;sensor_type;location;lat;lon;timestamp;P1;durP1;ratioP1;P2;durP2;ratioP2
50291;SDS011;36190;54.980;73.388;2022-07-04T00:01:35;14.00;;;4.95;;
50291;SDS011;36190;54.980;73.388;2022-07-04T00:04:02;13.07;;;4.68;;
50291;SDS011;36190;54.980;73.388;2022-07-04T00:06:30;14.75;;;5.72;;
50291;SDS011;36190;54.980;73.388;2022-07-04T00:08:59;12.40;;;5.47;;
50291;SDS011;36190;54.980;73.388;2022-07-04T00:11:26;13.18;;;5.00;;
50291;SDS011;36190;54.980;73.388;2022-07-04T00:13:54;15.20;;;5.95;;
50291;SDS011;36190;54.980;73.388;2022-07-04T00:16:21;12.90;;;4.75;;
50291;SDS011;36190;54.980;73.388;2022-07-04T00:18:48;17.05;;;5.35;;
50291;SDS011;36190;54.980;73.388;2022-07-04T00:21:16;14.57;;;5.30;;
50291;SDS011;36190;54.980;73.388;2022-07-04T00:23:43;15.48;;;4.20;;
50291;SDS011;36190;54.980;73.388;2022-07-04T00:26:12;11.82;;;4.22;;
50291;SDS011;36190;54.980;73.388;2022-07-04T00:28:40;16.15;;;4.15;;
50291;SDS011;36190;54.980;73.388;2022-07-04T00:31:07;15.70;;;3.97;;
50291;SDS011;36190;54.980;73.388;2022-07-04T00:33:34;13.02;;;4.05;;
50291;SDS011;36190;54.980;73.388;2022-07-04T00:36:02;11.75;;;3.90;;
50291;SDS011;36190;54.980;73.388;2022-07-04T00:38:30;6.45;;;2.78;;
50291;SDS011;36190;54.980;73.388;2022-07-04T00:40:57;5.20;;;2.75;;
50291;SDS011;36190;54.980;73.388;2022-07-04T00:43:27;7.43;;;2.47;;
50291;SDS011;36190;54.980;73.388;2022-07-04T00:45:55;7.43;;;2.55;;
50291;SDS011;36190;54.980;73.388;2022-07-04T00:48:22;9.73;;;2.83;;
50291;SDS011;36190;54.980;73.388;2022-07-04T00:50:50;22.75;;;3.92;;
50291;SDS011;36190;54.980;73.388;2022-07-04T00:53:18;7.60;;;3.15;;
50291;SDS011;36190;54.980;73.388;2022-07-04T00:55:49;8.75;;;2.67;;
50291;SDS011;36190;54.980;73.388;2022-07-04T00:58:18;9.45;;;2.83;;
50291;SDS011;36190;54.980;73.388;2022-07-04T01:00:48;6.80;;;2.47;;
50291;SDS011;36190;54.980;73.388;2022-07-04T01:03:16;8.52;;;2.88;;
50291;SDS011;36190;54.980;73.388;2022-07-04T01:05:43;8.82;;;3.17;;
50291;SDS011;36190;54.980;73.388;2022-07-04T01:08:12;7.47;;;2.88;;
50291;SDS011;36190;54.980;73.388;2022-07-04T01:10:40;7.20;;;2.85;;
50291;SDS011;36190;54.980;73.388;2022-07-04T01:13:07;6.57;;;2.55;;
50291;SDS011;36190;54.980;73.388;2022-07-04T01:15:35;8.40;;;3.00;;
50291;SDS011;36190;54.980;73.388;2022-07-04T01:18:04;6.55;;;2.65;;
50291;SDS011;36190;54.980;73.388;2022-07-04T01:20:36;11.82;;;3.05;;
50291;SDS011;36190;54.980;73.388;2022-07-04T01:23:04;7.93;;;2.70;;
50291;SDS011;36190;54.980;73.388;2022-07-04T01:25:31;11.10;;;3.00;;
50291;SDS011;36190;54.980;73.388;2022-07-04T01:27:59;9.35;;;3.17;;
50291;SDS011;36190;54.980;73.388;2022-07-04T01:30:27;6.72;;;2.50;;
50291;SDS011;36190;54.980;73.388;2022-07-04T01:32:55;7.28;;;2.75;;
50291;SDS011;36190;54.980;73.388;2022-07-04T01:35:23;8.98;;;3.08;;
50291;SDS011;36190;54.980;73.388;2022-07-04T01:37:52;11.00;;;2.92;;
50291;SDS011;36190;54.980;73.388;2022-07-04T01:40:19;8.52;;;2.75;;
50291;SDS011;36190;54.980;73.388;2022-07-04T01:42:47;12.52;;;3.13;;
50291;SDS011;36190;54.980;73.388;2022-07-04T01:45:14;11.13;;;3.35;;
50291;SDS011;36190;54.980;73.388;2022-07-04T01:47:42;7.15;;;2.75;;
50291;SDS011;36190;54.980;73.388;2022-07-04T01:50:10;8.93;;;2.50;;
50291;SDS011;36190;54.980;73.388;2022-07-04T01:52:38;6.30;;;2.58;;
50291;SDS011;36190;54.980;73.388;2022-07-04T01:55:08;11.93;;;2.72;;
50291;SDS011;36190;54.980;73.388;2022-07-04T01:57:36;5.97;;;2.60;;
50291;SDS011;36190;54.980;73.388;2022-07-04T02:00:04;6.30;;;2.63;;
50291;SDS011;36190;54.980;73.388;2022-07-04T02:02:50;7.43;;;2.58;;
50291;SDS011;36190;54.980;73.388;2022-07-04T02:05:17;5.68;;;2.72;;
50291;SDS011;36190;54.980;73.388;2022-07-04T02:07:45;6.78;;;2.83;;
50291;SDS011;36190;54.980;73.388;2022-07-04T02:10:14;10.73;;;2.83;;
50291;SDS011;36190;54.980;73.388;2022-07-04T02:12:42;9.38;;;2.50;;
50291;SDS011;36190;54.980;73.388;2022-07-04T02:15:26;7.80;;;2.50;;
50291;SDS011;36190;54.980;73.388;2022-07-04T02:17:54;5.82;;;2.60;;
50291;SDS011;36190;54.980;73.388;2022-07-04T02:20:22;6.72;;;2.72;;
50291;SDS011;36190;54.980;73.388;2022-07-04T02:22:49;6.25;;;2.40;;
50291;SDS011;36190;54.980;73.388;2022-07-04T02:25:18;6.88;;;2.40;;
50291;SDS011;36190;54.980;73.388;2022-07-04T02:27:46;8.13;;;2.60;;
50291;SDS011;36190;54.980;73.388;2022-07-04T02:30:13;8.18;;;2.65;;
50291;SDS011;36190;54.980;73.388;2022-07-04T02:32:41;11.35;;;2.65;;
50291;SDS011;36190;54.980;73.388;2022-07-04T02:35:09;11.07;;;3.10;;
50291;SDS011;36190;54.980;73.388;2022-07-04T02:37:37;8.27;;;3.03;;
50291;SDS011;36190;54.980;73.388;2022-07-04T02:40:06;7.25;;;2.75;;
50291;SDS011;36190;54.980;73.388;2022-07-04T02:42:36;11.13;;;3.10;;
50291;SDS011;36190;54.980;73.388;2022-07-04T02:45:03;8.15;;;2.78;;
50291;SDS011;36190;54.980;73.388;2022-07-04T02:47:32;6.07;;;2.50;;
50291;SDS011;36190;54.980;73.388;2022-07-04T02:50:00;9.38;;;2.83;;
50291;SDS011;36190;54.980;73.388;2022-07-04T02:52:28;5.40;;;2.60;;
50291;SDS011;36190;54.980;73.388;2022-07-04T02:54:56;4.70;;;2.30;;
50291;SDS011;36190;54.980;73.388;2022-07-04T02:57:23;6.22;;;2.78;;
50291;SDS011;36190;54.980;73.388;2022-07-04T02:59:52;9.77;;;2.70;;
50291;SDS011;36190;54.980;73.388;2022-07-04T03:02:20;8.25;;;3.00;;
50291;SDS011;36190;54.980;73.388;2022-07-04T03:04:47;10.02;;;2.90;;
50291;SDS011;36190;54.980;73.388;2022-07-04T03:07:14;6.05;;;2.60;;
50291;SDS011;36190;54.980;73.388;2022-07-04T03:09:42;11.65;;;3.08;;
50291;SDS011;36190;54.980;73.388;2022-07-04T03:12:10;14.80;;;4.03;;
50291;SDS011;36190;54.980;73.388;2022-07-04T03:14:37;6.97;;;2.60;;
50291;SDS011;36190;54.980;73.388;2022-07-04T03:17:06;5.85;;;2.42;;
50291;SDS011;36190;54.980;73.388;2022-07-04T03:19:33;6.90;;;2.60;;
50291;SDS011;36190;54.980;73.388;2022-07-04T03:22:01;4.70;;;2.33;;
50291;SDS011;36190;54.980;73.388;2022-07-04T03:24:28;7.88;;;2.70;;
50291;SDS011;36190;54.980;73.388;2022-07-04T03:26:56;10.95;;;2.70;;
50291;SDS011;36190;54.980;73.388;2022-07-04T03:29:23;10.30;;;3.03;;
50291;SDS011;36190;54.980;73.388;2022-07-04T03:31:51;8.32;;;2.72;;
50291;SDS011;36190;54.980;73.388;2022-07-04T03:34:20;6.95;;;2.50;;
50291;SDS011;36190;54.980;73.388;2022-07-04T03:36:47;7.38;;;2.75;;
50291;SDS011;36190;54.980;73.388;2022-07-04T03:39:15;9.35;;;2.80;;
50291;SDS011;36190;54.980;73.388;2022-07-04T03:41:42;12.43;;;3.30;;
50291;SDS011;36190;54.980;73.388;2022-07-04T03:44:10;6.88;;;2.20;;
50291;SDS011;36190;54.980;73.388;2022-07-04T03:46:37;4.65;;;2.28;;
50291;SDS011;36190;54.980;73.388;2022-07-04T03:49:04;5.72;;;2.33;;
50291;SDS011;36190;54.980;73.388;2022-07-04T03:51:33;7.90;;;2.50;;
50291;SDS011;36190;54.980;73.388;2022-07-04T03:54:01;7.38;;;2.30;;
50291;SDS011;36190;54.980;73.388;2022-07-04T03:56:28;9.18;;;2.60;;
50291;SDS011;36190;54.980;73.388;2022-07-04T03:58:56;12.07;;;3.00;;
50291;SDS011;36190;54.980;73.388;2022-07-04T04:01:23;5.70;;;2.50;;
50291;SDS011;36190;54.980;73.388;2022-07-04T04:03:51;11.35;;;2.63;;
50291;SDS011;36190;54.980;73.388;2022-07-04T04:06:37;10.10;;;2.72;;
50291;SDS011;36190;54.980;73.388;2022-07-04T04:09:04;11.02;;;2.83;;
50291;SDS011;36190;54.980;73.388;2022-07-04T04:11:32;10.10;;;2.40;;
50291;SDS011;36190;54.980;73.388;2022-07-04T04:13:59;9.52;;;2.80;;
50291;SDS011;36190;54.980;73.388;2022-07-04T04:16:27;11.90;;;3.65;;
50291;SDS011;36190;54.980;73.388;2022-07-04T04:18:55;8.50;;;2.90;;
50291;SDS011;36190;54.980;73.388;2022-07-04T04:21:22;5.07;;;2.20;;
50291;SDS011;36190;54.980;73.388;2022-07-04T04:23:51;5.35;;;2.42;;
50291;SDS011;36190;54.980;73.388;2022-07-04T04:26:19;5.80;;;2.15;;
50291;SDS011;36190;54.980;73.388;2022-07-04T04:28:46;11.35;;;3.00;;
50291;SDS011;36190;54.980;73.388;2022-07-04T04:31:14;9.40;;;3.00;;
50291;SDS011;36190;54.980;73.388;2022-07-04T04:33:42;3.63;;;2.17;;
50291;SDS011;36190;54.980;73.388;2022-07-04T04:36:10;4.18;;;2.15;;
50291;SDS011;36190;54.980;73.388;2022-07-04T04:38:37;7.00;;;2.40;;
50291;SDS011;36190;54.980;73.388;2022-07-04T04:41:06;5.13;;;2.22;;
50291;SDS011;36190;54.980;73.388;2022-07-04T04:43:33;11.05;;;3.33;;
50291;SDS011;36190;54.980;73.388;2022-07-04T04:46:01;11.27;;;2.97;;
50291;SDS011;36190;54.980;73.388;2022-07-04T04:48:28;12.02;;;2.85;;
50291;SDS011;36190;54.980;73.388;2022-07-04T04:50:56;9.27;;;2.95;;
50291;SDS011;36190;54.980;73.388;2022-07-04T04:53:23;5.32;;;2.40;;
50291;SDS011;36190;54.980;73.388;2022-07-04T04:55:51;8.35;;;2.65;;
50291;SDS011;36190;54.980;73.388;2022-07-04T04:58:20;7.60;;;2.45;;
50291;SDS011;36190;54.980;73.388;2022-07-04T05:00:49;8.18;;;2.55;;
50291;SDS011;36190;54.980;73.388;2022-07-04T05:03:17;7.25;;;2.70;;
50291;SDS011;36190;54.980;73.388;2022-07-04T05:05:45;10.30;;;2.88;;
50291;SDS011;36190;54.980;73.388;2022-07-04T05:08:12;6.68;;;2.63;;
50291;SDS011;36190;54.980;73.388;2022-07-04T05:10:40;5.00;;;2.10;;
50291;SDS011;36190;54.980;73.388;2022-07-04T05:13:07;6.88;;;2.38;;
50291;SDS011;36190;54.980;73.388;2022-07-04T05:15:37;6.78;;;2.50;;
50291;SDS011;36190;54.980;73.388;2022-07-04T05:18:04;6.13;;;2.60;;
50291;SDS011;36190;54.980;73.388;2022-07-04T05:20:32;5.53;;;2.58;;
50291;SDS011;36190;54.980;73.388;2022-07-04T05:22:59;8.40;;;2.40;;
50291;SDS011;36190;54.980;73.388;2022-07-04T05:25:27;8.40;;;2.33;;
50291;SDS011;36190;54.980;73.388;2022-07-04T05:27:54;11.65;;;3.13;;
50291;SDS011;36190;54.980;73.388;2022-07-04T05:30:21;8.57;;;2.60;;
50291;SDS011;36190;54.980;73.388;2022-07-04T05:32:50;6.28;;;2.15;;
50291;SDS011;36190;54.980;73.388;2022-07-04T05:35:18;5.93;;;2.38;;
50291;SDS011;36190;54.980;73.388;2022-07-04T05:37:45;8.52;;;2.65;;
50291;SDS011;36190;54.980;73.388;2022-07-04T05:40:13;5.63;;;2.40;;
50291;SDS011;36190;54.980;73.388;2022-07-04T05:42:40;5.18;;;2.28;;
50291;SDS011;36190;54.980;73.388;2022-07-04T05:45:08;9.43;;;2.90;;
50291;SDS011;36190;54.980;73.388;2022-07-04T05:47:36;10.23;;;2.92;;
50291;SDS011;36190;54.980;73.388;2022-07-04T05:50:05;4.85;;;2.60;;
50291;SDS011;36190;54.980;73.388;2022-07-04T05:52:34;14.93;;;2.97;;
50291;SDS011;36190;54.980;73.388;2022-07-04T05:55:02;7.60;;;2.80;;
50291;SDS011;36190;54.980;73.388;2022-07-04T05:57:30;11.73;;;2.92;;
50291;SDS011;36190;54.980;73.388;2022-07-04T05:59:57;8.32;;;2.47;;
50291;SDS011;36190;54.980;73.388;2022-07-04T06:02:24;7.05;;;2.83;;
50291;SDS011;36190;54.980;73.388;2022-07-04T06:04:52;12.57;;;3.00;;
50291;SDS011;36190;54.980;73.388;2022-07-04T06:07:21;11.32;;;2.97;;
50291;SDS011;36190;54.980;73.388;2022-07-04T06:09:48;7.00;;;2.80;;
50291;SDS011;36190;54.980;73.388;2022-07-04T06:12:16;17.55;;;3.30;;
50291;SDS011;36190;54.980;73.388;2022-07-04T06:14:43;7.55;;;2.70;;
50291;SDS011;36190;54.980;73.388;2022-07-04T06:17:11;9.75;;;2.80;;
50291;SDS011;36190;54.980;73.388;2022-07-04T06:19:38;6.20;;;2.50;;
50291;SDS011;36190;54.980;73.388;2022-07-04T06:22:06;8.57;;;3.05;;
50291;SDS011;36190;54.980;73.388;2022-07-04T06:24:34;7.13;;;2.90;;
50291;SDS011;36190;54.980;73.388;2022-07-04T06:27:02;6.45;;;2.83;;
50291;SDS011;36190;54.980;73.388;2022-07-04T06:29:31;12.68;;;2.60;;
50291;SDS011;36190;54.980;73.388;2022-07-04T06:31:58;10.50;;;3.20;;
50291;SDS011;36190;54.980;73.388;2022-07-04T06:34:26;10.15;;;2.70;;
50291;SDS011;36190;54.980;73.388;2022-07-04T06:37:12;12.48;;;3.05;;
50291;SDS011;36190;54.980;73.388;2022-07-04T06:39:41;11.60;;;2.90;;
50291;SDS011;36190;54.980;73.388;2022-07-04T06:42:09;13.75;;;3.45;;
50291;SDS011;36190;54.980;73.388;2022-07-04T06:44:36;9.93;;;3.00;;
50291;SDS011;36190;54.980;73.388;2022-07-04T06:47:04;9.60;;;2.67;;
50291;SDS011;36190;54.980;73.388;2022-07-04T06:49:31;11.20;;;2.72;;
50291;SDS011;36190;54.980;73.388;2022-07-04T06:51:59;8.52;;;2.42;;
50291;SDS011;36190;54.980;73.388;2022-07-04T06:54:26;12.90;;;3.22;;
50291;SDS011;36190;54.980;73.388;2022-07-04T06:56:55;11.18;;;3.42;;
50291;SDS011;36190;54.980;73.388;2022-07-04T06:59:23;7.18;;;2.90;;
50291;SDS011;36190;54.980;73.388;2022-07-04T07:01:50;7.72;;;3.05;;
50291;SDS011;36190;54.980;73.388;2022-07-04T07:04:17;8.70;;;3.30;;
50291;SDS011;36190;54.980;73.388;2022-07-04T07:06:45;6.97;;;2.80;;
50291;SDS011;36190;54.980;73.388;2022-07-04T07:09:12;10.82;;;3.38;;
50291;SDS011;36190;54.980;73.388;2022-07-04T07:11:40;6.72;;;2.83;;
50291;SDS011;36190;54.980;73.388;2022-07-04T07:14:08;8.20;;;2.92;;
50291;SDS011;36190;54.980;73.388;2022-07-04T07:16:36;14.50;;;3.30;;
50291;SDS011;36190;54.980;73.388;2022-07-04T07:19:03;14.10;;;3.20;;
50291;SDS011;36190;54.980;73.388;2022-07-04T07:21:31;7.70;;;2.70;;
50291;SDS011;36190;54.980;73.388;2022-07-04T07:23:58;8.73;;;2.75;;
50291;SDS011;36190;54.980;73.388;2022-07-04T07:26:28;6.47;;;2.58;;
50291;SDS011;36190;54.980;73.388;2022-07-04T07:28:56;11.32;;;3.25;;
50291;SDS011;36190;54.980;73.388;2022-07-04T07:31:25;6.88;;;2.70;;
50291;SDS011;36190;54.980;73.388;2022-07-04T07:33:52;7.47;;;3.40;;
50291;SDS011;36190;54.980;73.388;2022-07-04T07:36:20;9.85;;;2.72;;
50291;SDS011;36190;54.980;73.388;2022-07-04T07:38:47;7.45;;;2.92;;
50291;SDS011;36190;54.980;73.388;2022-07-04T07:41:15;9.75;;;3.10;;
50291;SDS011;36190;54.980;73.388;2022-07-04T07:43:42;8.25;;;2.80;;
50291;SDS011;36190;54.980;73.388;2022-07-04T07:46:10;6.80;;;2.90;;
50291;SDS011;36190;54.980;73.388;2022-07-04T07:48:39;8.88;;;2.80;;
50291;SDS011;36190;54.980;73.388;2022-07-04T07:51:06;10.40;;;2.72;;
50291;SDS011;36190;54.980;73.388;2022-07-04T07:53:33;6.60;;;2.90;;
50291;SDS011;36190;54.980;73.388;2022-07-04T07:56:01;12.30;;;3.35;;
50291;SDS011;36190;54.980;73.388;2022-07-04T07:58:28;9.38;;;2.90;;
50291;SDS011;36190;54.980;73.388;2022-07-04T08:00:56;11.77;;;3.10;;
50291;SDS011;36190;54.980;73.388;2022-07-04T08:03:24;7.18;;;2.85;;
50291;SDS011;36190;54.980;73.388;2022-07-04T08:06:16;9.43;;;2.70;;
50291;SDS011;36190;54.980;73.388;2022-07-04T08:08:43;9.07;;;2.90;;
50291;SDS011;36190;54.980;73.388;2022-07-04T08:11:11;8.85;;;2.65;;
50291;SDS011;36190;54.980;73.388;2022-07-04T08:13:39;7.65;;;2.80;;
50291;SDS011;36190;54.980;73.388;2022-07-04T08:16:07;6.07;;;2.65;;
50291;SDS011;36190;54.980;73.388;2022-07-04T08:18:35;10.70;;;2.80;;
50291;SDS011;36190;54.980;73.388;2022-07-04T08:21:03;5.00;;;2.50;;
50291;SDS011;36190;54.980;73.388;2022-07-04T08:23:32;4.90;;;2.45;;
50291;SDS011;36190;54.980;73.388;2022-07-04T08:26:00;7.50;;;2.90;;
50291;SDS011;36190;54.980;73.388;2022-07-04T08:28:28;9.57;;;2.92;;
50291;SDS011;36190;54.980;73.388;2022-07-04T08:30:56;12.75;;;4.07;;
50291;SDS011;36190;54.980;73.388;2022-07-04T08:33:24;13.98;;;3.33;;
50291;SDS011;36190;54.980;73.388;2022-07-04T08:35:52;10.68;;;3.67;;
50291;SDS011;36190;54.980;73.388;2022-07-04T08:38:20;11.48;;;3.70;;
50291;SDS011;36190;54.980;73.388;2022-07-04T08:40:49;13.02;;;3.42;;
50291;SDS011;36190;54.980;73.388;2022-07-04T08:43:22;7.70;;;2.67;;
50291;SDS011;36190;54.980;73.388;2022-07-04T08:45:52;7.72;;;3.05;;
50291;SDS011;36190;54.980;73.388;2022-07-04T08:48:21;9.25;;;2.85;;
50291;SDS011;36190;54.980;73.388;2022-07-04T08:50:56;11.57;;;3.20;;
50291;SDS011;36190;54.980;73.388;2022-07-04T08:53:26;9.13;;;3.13;;
50291;SDS011;36190;54.980;73.388;2022-07-04T08:55:56;7.28;;;3.35;;
50291;SDS011;36190;54.980;73.388;2022-07-04T08:58:41;8.82;;;3.10;;
50291;SDS011;36190;54.980;73.388;2022-07-04T09:01:10;9.55;;;3.38;;
50291;SDS011;36190;54.980;73.388;2022-07-04T09:03:40;10.40;;;3.25;;
50291;SDS011;36190;54.980;73.388;2022-07-04T09:06:09;14.63;;;3.72;;
50291;SDS011;36190;54.980;73.388;2022-07-04T09:08:37;9.63;;;4.28;;
50291;SDS011;36190;54.980;73.388;2022-07-04T09:11:06;8.00;;;3.30;;
50291;SDS011;36190;54.980;73.388;2022-07-04T09:13:34;8.52;;;3.25;;
50291;SDS011;36190;54.980;73.388;2022-07-04T09:16:01;11.70;;;3.53;;
50291;SDS011;36190;54.980;73.388;2022-07-04T09:18:29;6.65;;;3.17;;
50291;SDS011;36190;54.980;73.388;2022-07-04T09:20:58;13.38;;;3.30;;
50291;SDS011;36190;54.980;73.388;2022-07-04T09:23:27;9.70;;;3.28;;
50291;SDS011;36190;54.980;73.388;2022-07-04T09:26:08;10.43;;;3.53;;
50291;SDS011;36190;54.980;73.388;2022-07-04T09:28:39;8.20;;;3.45;;
50291;SDS011;36190;54.980;73.388;2022-07-04T09:31:14;10.60;;;3.90;;
50291;SDS011;36190;54.980;73.388;2022-07-04T09:33:46;12.52;;;3.70;;
50291;SDS011;36190;54.980;73.388;2022-07-04T09:36:17;9.18;;;3.30;;
50291;SDS011;36190;54.980;73.388;2022-07-04T09:38:46;9.25;;;3.03;;
50291;SDS011;36190;54.980;73.388;2022-07-04T09:41:32;9.90;;;3.30;;
50291;SDS011;36190;54.980;73.388;2022-07-04T09:44:17;5.72;;;2.72;;
50291;SDS011;36190;54.980;73.388;2022-07-04T09:46:45;7.25;;;2.95;;
50291;SDS011;36190;54.980;73.388;2022-07-04T09:49:13;5.93;;;2.90;;
50291;SDS011;36190;54.980;73.388;2022-07-04T09:51:41;6.18;;;2.80;;
50291;SDS011;36190;54.980;73.388;2022-07-04T09:54:16;7.57;;;2.95;;
50291;SDS011;36190;54.980;73.388;2022-07-04T09:56:59;7.07;;;3.40;;
50291;SDS011;36190;54.980;73.388;2022-07-04T09:59:28;6.53;;;2.90;;
50291;SDS011;36190;54.980;73.388;2022-07-04T10:02:06;6.60;;;2.80;;
50291;SDS011;36190;54.980;73.388;2022-07-04T10:04:41;6.50;;;2.85;;
50291;SDS011;36190;54.980;73.388;2022-07-04T10:07:10;7.45;;;3.35;;
50291;SDS011;36190;54.980;73.388;2022-07-04T10:09:38;8.30;;;3.03;;
50291;SDS011;36190;54.980;73.388;2022-07-04T10:12:07;7.93;;;3.53;;
50291;SDS011;36190;54.980;73.388;2022-07-04T10:14:36;8.60;;;3.40;;
50291;SDS011;36190;54.980;73.388;2022-07-04T10:17:04;10.77;;;3.28;;
50291;SDS011;36190;54.980;73.388;2022-07-04T10:19:32;7.97;;;3.65;;
50291;SDS011;36190;54.980;73.388;2022-07-04T10:22:01;16.17;;;6.72;;
50291;SDS011;36190;54.980;73.388;2022-07-04T10:24:30;11.80;;;5.25;;
50291;SDS011;36190;54.980;73.388;2022-07-04T10:26:58;12.43;;;5.18;;
50291;SDS011;36190;54.980;73.388;2022-07-04T10:29:26;8.90;;;4.28;;
50291;SDS011;36190;54.980;73.388;2022-07-04T10:31:54;10.20;;;3.83;;
50291;SDS011;36190;54.980;73.388;2022-07-04T10:34:22;9.15;;;3.75;;
50291;SDS011;36190;54.980;73.388;2022-07-04T10:36:51;9.85;;;3.67;;
50291;SDS011;36190;54.980;73.388;2022-07-04T10:39:21;11.48;;;4.82;;
50291;SDS011;36190;54.980;73.388;2022-07-04T10:41:55;13.32;;;3.90;;
50291;SDS011;36190;54.980;73.388;2022-07-04T10:44:27;10.45;;;4.20;;
50291;SDS011;36190;54.980;73.388;2022-07-04T10:47:01;9.13;;;3.47;;
50291;SDS011;36190;54.980;73.388;2022-07-04T10:49:29;10.55;;;3.63;;
50291;SDS011;36190;54.980;73.388;2022-07-04T10:52:10;13.02;;;3.67;;
50291;SDS011;36190;54.980;73.388;2022-07-04T10:54:38;10.10;;;4.10;;
50291;SDS011;36190;54.980;73.388;2022-07-04T10:57:10;11.00;;;3.40;;
50291;SDS011;36190;54.980;73.388;2022-07-04T10:59:41;9.50;;;3.37;;
50291;SDS011;36190;54.980;73.388;2022-07-04T11:02:23;9.13;;;4.43;;
50291;SDS011;36190;54.980;73.388;2022-07-04T11:04:53;8.65;;;4.20;;
50291;SDS011;36190;54.980;73.388;2022-07-04T11:07:23;9.02;;;4.45;;
50291;SDS011;36190;54.980;73.388;2022-07-04T11:10:23;10.27;;;4.43;;
50291;SDS011;36190;54.980;73.388;2022-07-04T11:18:39;10.52;;;4.15;;
50291;SDS011;36190;54.980;73.388;2022-07-04T11:21:18;9.63;;;4.10;;
50291;SDS011;36190;54.980;73.388;2022-07-04T11:23:50;11.20;;;4.38;;
50291;SDS011;36190;54.980;73.388;2022-07-04T11:26:20;9.18;;;3.47;;
50291;SDS011;36190;54.980;73.388;2022-07-04T11:28:48;10.88;;;3.60;;
50291;SDS011;36190;54.980;73.388;2022-07-04T11:31:17;8.88;;;3.70;;
50291;SDS011;36190;54.980;73.388;2022-07-04T11:33:45;10.65;;;3.63;;
50291;SDS011;36190;54.980;73.388;2022-07-04T11:36:14;12.95;;;5.05;;
50291;SDS011;36190;54.980;73.388;2022-07-04T11:38:50;11.82;;;5.60;;
50291;SDS011;36190;54.980;73.388;2022-07-04T11:41:20;10.50;;;5.07;;
50291;SDS011;36190;54.980;73.388;2022-07-04T11:44:07;11.68;;;4.72;;
50291;SDS011;36190;54.980;73.388;2022-07-04T11:47:07;10.50;;;4.82;;
50291;SDS011;36190;54.980;73.388;2022-07-04T11:49:41;12.00;;;5.55;;
50291;SDS011;36190;54.980;73.388;2022-07-04T11:52:10;7.70;;;4.00;;
50291;SDS011;36190;54.980;73.388;2022-07-04T11:54:38;11.80;;;4.22;;
50291;SDS011;36190;54.980;73.388;2022-07-04T11:57:10;7.13;;;3.40;;
50291;SDS011;36190;54.980;73.388;2022-07-04T11:59:39;9.05;;;3.80;;
50291;SDS011;36190;54.980;73.388;2022-07-04T12:02:12;7.78;;;4.10;;
50291;SDS011;36190;54.980;73.388;2022-07-04T12:04:40;9.00;;;3.60;;
50291;SDS011;36190;54.980;73.388;2022-07-04T12:07:08;7.78;;;3.40;;
50291;SDS011;36190;54.980;73.388;2022-07-04T12:09:37;7.20;;;3.50;;
50291;SDS011;36190;54.980;73.388;2022-07-04T12:12:05;8.32;;;3.38;;
50291;SDS011;36190;54.980;73.388;2022-07-04T12:14:33;7.50;;;3.30;;
50291;SDS011;36190;54.980;73.388;2022-07-04T12:17:13;6.47;;;3.20;;
50291;SDS011;36190;54.980;73.388;2022-07-04T12:19:51;6.25;;;3.22;;
50291;SDS011;36190;54.980;73.388;2022-07-04T12:22:25;10.07;;;3.53;;
50291;SDS011;36190;54.980;73.388;2022-07-04T12:24:53;8.55;;;3.25;;
50291;SDS011;36190;54.980;73.388;2022-07-04T12:27:21;8.43;;;3.30;;
50291;SDS011;36190;54.980;73.388;2022-07-04T12:29:50;7.55;;;3.38;;
50291;SDS011;36190;54.980;73.388;2022-07-04T12:32:20;9.82;;;3.97;;
50291;SDS011;36190;54.980;73.388;2022-07-04T12:34:48;9.85;;;3.83;;
50291;SDS011;36190;54.980;73.388;2022-07-04T12:37:15;7.15;;;3.20;;
50291;SDS011;36190;54.980;73.388;2022-07-04T12:39:43;8.40;;;3.55;;
50291;SDS011;36190;54.980;73.388;2022-07-04T12:42:12;13.20;;;4.07;;
50291;SDS011;36190;54.980;73.388;2022-07-04T12:44:41;8.63;;;3.60;;
50291;SDS011;36190;54.980;73.388;2022-07-04T12:47:10;7.20;;;3.50;;
50291;SDS011;36190;54.980;73.388;2022-07-04T12:49:43;8.05;;;3.63;;
50291;SDS011;36190;54.980;73.388;2022-07-04T12:52:13;9.52;;;3.42;;
50291;SDS011;36190;54.980;73.388;2022-07-04T12:54:43;7.32;;;3.30;;
50291;SDS011;36190;54.980;73.388;2022-07-04T12:57:12;7.60;;;3.33;;
50291;SDS011;36190;54.980;73.388;2022-07-04T12:59:41;9.43;;;3.67;;
50291;SDS011;36190;54.980;73.388;2022-07-04T13:02:09;7.95;;;3.50;;
50291;SDS011;36190;54.980;73.388;2022-07-04T13:04:38;8.10;;;3.83;;
50291;SDS011;36190;54.980;73.388;2022-07-04T13:07:16;10.07;;;3.97;;
50291;SDS011;36190;54.980;73.388;2022-07-04T13:09:44;7.78;;;3.55;;
50291;SDS011;36190;54.980;73.388;2022-07-04T13:12:12;7.50;;;3.70;;
50291;SDS011;36190;54.980;73.388;2022-07-04T13:14:51;8.80;;;3.50;;
50291;SDS011;36190;54.980;73.388;2022-07-04T13:17:18;8.30;;;3.53;;
50291;SDS011;36190;54.980;73.388;2022-07-04T13:19:46;8.55;;;3.50;;
50291;SDS011;36190;54.980;73.388;2022-07-04T13:22:15;9.07;;;3.53;;
50291;SDS011;36190;54.980;73.388;2022-07-04T13:24:43;8.95;;;3.60;;
50291;SDS011;36190;54.980;73.388;2022-07-04T13:27:10;8.15;;;3.60;;
50291;SDS011;36190;54.980;73.388;2022-07-04T13:29:38;8.25;;;3.30;;
50291;SDS011;36190;54.980;73.388;2022-07-04T13:32:05;8.80;;;3.50;;
50291;SDS011;36190;54.980;73.388;2022-07-04T13:34:34;10.02;;;3.90;;
50291;SDS011;36190;54.980;73.388;2022-07-04T13:37:02;7.60;;;3.70;;
50291;SDS011;36190;54.980;73.388;2022-07-04T13:39:31;8.77;;;3.78;;
50291;SDS011;36190;54.980;73.388;2022-07-04T13:42:00;9.55;;;4.03;;
50291;SDS011;36190;54.980;73.388;2022-07-04T13:44:27;10.20;;;5.15;;
50291;SDS011;36190;54.980;73.388;2022-07-04T13:46:55;11.70;;;5.85;;
50291;SDS011;36190;54.980;73.388;2022-07-04T13:49:24;12.15;;;5.32;;
50291;SDS011;36190;54.980;73.388;2022-07-04T13:51:52;11.52;;;5.63;;
50291;SDS011;36190;54.980;73.388;2022-07-04T13:54:20;9.65;;;4.47;;
50291;SDS011;36190;54.980;73.388;2022-07-04T13:56:48;10.05;;;3.85;;
50291;SDS011;36190;54.980;73.388;2022-07-04T13:59:16;8.80;;;4.22;;
50291;SDS011;36190;54.980;73.388;2022-07-04T14:01:43;8.50;;;3.83;;
50291;SDS011;36190;54.980;73.388;2022-07-04T14:04:12;8.07;;;4.30;;
50291;SDS011;36190;54.980;73.388;2022-07-04T14:06:40;8.23;;;4.00;;
50291;SDS011;36190;54.980;73.388;2022-07-04T14:09:07;6.75;;;3.75;;
50291;SDS011;36190;54.980;73.388;2022-07-04T14:11:35;11.98;;;3.55;;
50291;SDS011;36190;54.980;73.388;2022-07-04T14:14:03;7.35;;;3.40;;
50291;SDS011;36190;54.980;73.388;2022-07-04T14:16:31;8.48;;;4.05;;
50291;SDS011;36190;54.980;73.388;2022-07-04T14:18:58;5.90;;;3.33;;
50291;SDS011;36190;54.980;73.388;2022-07-04T14:21:26;8.07;;;3.47;;
50291;SDS011;36190;54.980;73.388;2022-07-04T14:23:53;9.27;;;4.30;;
50291;SDS011;36190;54.980;73.388;2022-07-04T14:26:21;6.65;;;3.53;;
50291;SDS011;36190;54.980;73.388;2022-07-04T14:28:50;7.95;;;3.90;;
50291;SDS011;36190;54.980;73.388;2022-07-04T14:31:19;7.05;;;3.70;;
50291;SDS011;36190;54.980;73.388;2022-07-04T14:33:46;8.30;;;4.15;;
50291;SDS011;36190;54.980;73.388;2022-07-04T14:36:14;9.90;;;4.18;;
50291;SDS011;36190;54.980;73.388;2022-07-04T14:38:41;8.82;;;4.00;;
50291;SDS011;36190;54.980;73.388;2022-07-04T14:41:09;7.38;;;3.88;;
50291;SDS011;36190;54.980;73.388;2022-07-04T14:43:37;8.05;;;3.97;;
50291;SDS011;36190;54.980;73.388;2022-07-04T14:46:05;8.40;;;3.97;;
50291;SDS011;36190;54.980;73.388;2022-07-04T14:48:34;7.53;;;3.75;;